sensor_id;sensor_type;location;lat;lon;timestamp;pressure;altitude;pressure_sealevel;temperature;humidity
60705;BME280;46545;38.014;-7.874;2024-02-21T00:01:00;99916.56;;;15.62;68.79
60705;BME280;46545;38.014;-7.874;2024-02-21T00:03:01;99916.06;;;15.65;69.03
60705;BME280;46545;38.014;-7.874;2024-02-21T00:05:02;99909.03;;;15.64;69.17
60705;BME280;46545;38.014;-7.874;2024-02-21T00:07:04;99912.19;;;15.56;69.37
60705;BME280;46545;38.014;-7.874;2024-02-21T00:09:04;99905.16;;;15.54;69.94
60705;BME280;46545;38.014;-7.874;2024-02-21T00:11:05;99898.06;;;15.48;70.24
60705;BME280;46545;38.014;-7.874;2024-02-21T00:13:06;99904.28;;;15.49;70.35
60705;BME280;46545;38.014;-7.874;2024-02-21T00:15:07;99899.63;;;15.44;70.82
60705;BME280;46545;38.014;-7.874;2024-02-21T00:17:07;99896.06;;;15.39;71.07
60705;BME280;46545;38.014;-7.874;2024-02-21T00:19:08;99901.38;;;15.33;71.51
60705;BME280;46545;38.014;-7.874;2024-02-21T00:21:09;99898.09;;;15.31;72.40
60705;BME280;46545;38.014;-7.874;2024-02-21T00:23:15;99900.19;;;15.24;72.76
60705;BME280;46545;38.014;-7.874;2024-02-21T00:25:16;99888.19;;;15.15;73.36
60705;BME280;46545;38.014;-7.874;2024-02-21T00:27:16;99901.44;;;15.17;74.52
60705;BME280;46545;38.014;-7.874;2024-02-21T00:29:17;99894.91;;;15.12;74.75
60705;BME280;46545;38.014;-7.874;2024-02-21T00:31:18;99902.72;;;15.09;75.28
60705;BME280;46545;38.014;-7.874;2024-02-21T00:33:19;99898.63;;;15.06;75.97
60705;BME280;46545;38.014;-7.874;2024-02-21T00:35:20;99895.84;;;15.01;76.40
60705;BME280;46545;38.014;-7.874;2024-02-21T00:37:20;99897.19;;;14.99;76.52
60705;BME280;46545;38.014;-7.874;2024-02-21T00:39:21;99904.44;;;14.98;77.35
60705;BME280;46545;38.014;-7.874;2024-02-21T00:41:22;99891.94;;;14.92;77.71
60705;BME280;46545;38.014;-7.874;2024-02-21T00:43:22;99895.97;;;14.89;78.04
60705;BME280;46545;38.014;-7.874;2024-02-21T00:45:26;99893.41;;;15.00;78.99
60705;BME280;46545;38.014;-7.874;2024-02-21T00:47:26;99895.34;;;15.04;78.80
60705;BME280;46545;38.014;-7.874;2024-02-21T00:49:27;99889.47;;;15.07;79.14
60705;BME280;46545;38.014;-7.874;2024-02-21T00:51:28;99897.25;;;15.04;79.56
60705;BME280;46545;38.014;-7.874;2024-02-21T00:53:29;99901.19;;;14.96;80.28
60705;BME280;46545;38.014;-7.874;2024-02-21T00:55:29;99904.25;;;14.83;81.00
60705;BME280;46545;38.014;-7.874;2024-02-21T00:57:30;99904.47;;;14.81;80.93
60705;BME280;46545;38.014;-7.874;2024-02-21T00:59:31;99900.31;;;14.73;81.40
60705;BME280;46545;38.014;-7.874;2024-02-21T01:01:32;99900.59;;;14.72;81.65
60705;BME280;46545;38.014;-7.874;2024-02-21T01:03:33;99903.03;;;14.73;82.08
60705;BME280;46545;38.014;-7.874;2024-02-21T01:05:33;99901.63;;;14.71;82.23
60705;BME280;46545;38.014;-7.874;2024-02-21T01:07:34;99897.81;;;14.67;82.61
60705;BME280;46545;38.014;-7.874;2024-02-21T01:09:35;99895.03;;;14.62;82.78
60705;BME280;46545;38.014;-7.874;2024-02-21T01:11:35;99890.38;;;14.57;82.95
60705;BME280;46545;38.014;-7.874;2024-02-21T01:13:36;99895.53;;;14.59;83.63
60705;BME280;46545;38.014;-7.874;2024-02-21T01:15:37;99894.78;;;14.63;83.46
60705;BME280;46545;38.014;-7.874;2024-02-21T01:17:38;99896.34;;;14.59;83.58
60705;BME280;46545;38.014;-7.874;2024-02-21T01:19:40;99891.34;;;14.68;83.36
60705;BME280;46545;38.014;-7.874;2024-02-21T01:21:41;99898.75;;;14.78;82.37
60705;BME280;46545;38.014;-7.874;2024-02-21T01:23:42;99896.72;;;14.85;81.69
60705;BME280;46545;38.014;-7.874;2024-02-21T01:25:42;99899.47;;;14.90;81.51
60705;BME280;46545;38.014;-7.874;2024-02-21T01:27:43;99902.91;;;14.85;81.63
60705;BME280;46545;38.014;-7.874;2024-02-21T01:29:44;99900.47;;;14.84;81.98
60705;BME280;46545;38.014;-7.874;2024-02-21T01:31:46;99889.94;;;14.82;82.18
60705;BME280;46545;38.014;-7.874;2024-02-21T01:33:47;99900.75;;;14.82;81.67
60705;BME280;46545;38.014;-7.874;2024-02-21T01:35:48;99892.56;;;14.77;82.67
60705;BME280;46545;38.014;-7.874;2024-02-21T01:37:50;99896.56;;;14.75;82.60
60705;BME280;46545;38.014;-7.874;2024-02-21T01:39:52;99897.47;;;14.80;82.27
60705;BME280;46545;38.014;-7.874;2024-02-21T01:41:53;99895.34;;;14.82;81.70
60705;BME280;46545;38.014;-7.874;2024-02-21T01:43:53;99893.38;;;14.78;82.54
60705;BME280;46545;38.014;-7.874;2024-02-21T01:45:55;99894.69;;;14.75;82.38
60705;BME280;46545;38.014;-7.874;2024-02-21T01:47:56;99893.22;;;14.67;82.63
60705;BME280;46545;38.014;-7.874;2024-02-21T01:49:57;99887.53;;;14.64;83.12
60705;BME280;46545;38.014;-7.874;2024-02-21T01:51:58;99879.91;;;14.61;83.08
60705;BME280;46545;38.014;-7.874;2024-02-21T01:53:58;99889.88;;;14.60;83.50
60705;BME280;46545;38.014;-7.874;2024-02-21T01:55:59;99883.94;;;14.58;83.81
60705;BME280;46545;38.014;-7.874;2024-02-21T01:58:01;99878.44;;;14.70;83.45
60705;BME280;46545;38.014;-7.874;2024-02-21T02:00:03;99887.91;;;14.72;83.31
60705;BME280;46545;38.014;-7.874;2024-02-21T02:02:11;99883.00;;;14.69;83.43
60705;BME280;46545;38.014;-7.874;2024-02-21T02:04:12;99880.63;;;14.73;83.39
60705;BME280;46545;38.014;-7.874;2024-02-21T02:06:12;99874.91;;;14.69;83.54
60705;BME280;46545;38.014;-7.874;2024-02-21T02:08:18;99879.25;;;14.70;83.49
60705;BME280;46545;38.014;-7.874;2024-02-21T02:10:19;99877.19;;;14.78;83.04
60705;BME280;46545;38.014;-7.874;2024-02-21T02:12:20;99871.16;;;14.70;83.19
60705;BME280;46545;38.014;-7.874;2024-02-21T02:14:21;99877.19;;;14.78;82.88
60705;BME280;46545;38.014;-7.874;2024-02-21T02:16:22;99870.72;;;14.79;82.45
60705;BME280;46545;38.014;-7.874;2024-02-21T02:18:22;99874.63;;;14.88;81.59
60705;BME280;46545;38.014;-7.874;2024-02-21T02:20:23;99867.09;;;14.90;81.62
60705;BME280;46545;38.014;-7.874;2024-02-21T02:22:28;99868.22;;;14.94;81.03
60705;BME280;46545;38.014;-7.874;2024-02-21T02:24:29;99870.06;;;14.88;81.38
60705;BME280;46545;38.014;-7.874;2024-02-21T02:26:30;99865.09;;;14.80;81.74
60705;BME280;46545;38.014;-7.874;2024-02-21T02:28:30;99861.00;;;14.78;81.84
60705;BME280;46545;38.014;-7.874;2024-02-21T02:30:35;99860.69;;;14.74;82.10
60705;BME280;46545;38.014;-7.874;2024-02-21T02:32:38;99868.69;;;14.69;82.69
60705;BME280;46545;38.014;-7.874;2024-02-21T02:34:39;99864.75;;;14.77;82.09
60705;BME280;46545;38.014;-7.874;2024-02-21T02:36:40;99855.28;;;14.74;81.80
60705;BME280;46545;38.014;-7.874;2024-02-21T02:38:40;99852.28;;;14.70;82.22
60705;BME280;46545;38.014;-7.874;2024-02-21T02:40:41;99851.38;;;14.65;82.76
60705;BME280;46545;38.014;-7.874;2024-02-21T02:42:42;99854.81;;;14.60;83.18
60705;BME280;46545;38.014;-7.874;2024-02-21T02:44:43;99848.09;;;14.63;82.86
60705;BME280;46545;38.014;-7.874;2024-02-21T02:46:43;99845.41;;;14.63;83.25
60705;BME280;46545;38.014;-7.874;2024-02-21T02:48:44;99839.81;;;14.69;82.20
60705;BME280;46545;38.014;-7.874;2024-02-21T02:50:45;99837.22;;;14.75;81.76
60705;BME280;46545;38.014;-7.874;2024-02-21T02:52:46;99835.09;;;14.77;81.43
60705;BME280;46545;38.014;-7.874;2024-02-21T02:54:47;99829.59;;;14.71;81.53
60705;BME280;46545;38.014;-7.874;2024-02-21T02:56:52;99830.75;;;14.76;81.09
60705;BME280;46545;38.014;-7.874;2024-02-21T02:58:52;99832.97;;;14.79;81.08
60705;BME280;46545;38.014;-7.874;2024-02-21T03:00:53;99829.75;;;14.82;80.99
60705;BME280;46545;38.014;-7.874;2024-02-21T03:02:54;99826.38;;;14.91;80.36
60705;BME280;46545;38.014;-7.874;2024-02-21T03:04:54;99820.06;;;14.86;80.79
60705;BME280;46545;38.014;-7.874;2024-02-21T03:06:55;99810.59;;;14.83;81.15
60705;BME280;46545;38.014;-7.874;2024-02-21T03:08:56;99810.28;;;14.80;81.80
60705;BME280;46545;38.014;-7.874;2024-02-21T03:10:56;99804.41;;;14.83;81.69
60705;BME280;46545;38.014;-7.874;2024-02-21T03:12:57;99799.50;;;14.80;82.03
60705;BME280;46545;38.014;-7.874;2024-02-21T03:14:58;99803.03;;;14.80;82.14
60705;BME280;46545;38.014;-7.874;2024-02-21T03:16:59;99803.50;;;14.77;82.36
60705;BME280;46545;38.014;-7.874;2024-02-21T03:18:59;99804.84;;;14.75;82.37
60705;BME280;46545;38.014;-7.874;2024-02-21T03:21:00;99809.84;;;14.66;83.16
60705;BME280;46545;38.014;-7.874;2024-02-21T03:23:01;99807.06;;;14.61;83.35
60705;BME280;46545;38.014;-7.874;2024-02-21T03:25:01;99807.59;;;14.58;83.44
60705;BME280;46545;38.014;-7.874;2024-02-21T03:27:02;99803.41;;;14.50;83.86
60705;BME280;46545;38.014;-7.874;2024-02-21T03:29:03;99807.22;;;14.54;83.83
60705;BME280;46545;38.014;-7.874;2024-02-21T03:31:04;99812.06;;;14.52;83.98
60705;BME280;46545;38.014;-7.874;2024-02-21T03:33:05;99800.94;;;14.48;84.38
60705;BME280;46545;38.014;-7.874;2024-02-21T03:35:06;99806.34;;;14.48;84.20
60705;BME280;46545;38.014;-7.874;2024-02-21T03:37:06;99809.97;;;14.37;84.98
60705;BME280;46545;38.014;-7.874;2024-02-21T03:39:07;99808.41;;;14.41;85.57
60705;BME280;46545;38.014;-7.874;2024-02-21T03:41:09;99806.19;;;14.38;85.16
60705;BME280;46545;38.014;-7.874;2024-02-21T03:43:10;99801.69;;;14.44;85.16
60705;BME280;46545;38.014;-7.874;2024-02-21T03:45:10;99815.84;;;14.34;85.71
60705;BME280;46545;38.014;-7.874;2024-02-21T03:47:11;99818.47;;;14.29;86.07
60705;BME280;46545;38.014;-7.874;2024-02-21T03:49:12;99829.88;;;14.36;86.04
60705;BME280;46545;38.014;-7.874;2024-02-21T03:51:12;99816.44;;;14.19;86.81
60705;BME280;46545;38.014;-7.874;2024-02-21T03:53:14;99824.28;;;14.21;86.69
60705;BME280;46545;38.014;-7.874;2024-02-21T03:55:14;99827.72;;;14.16;87.68
60705;BME280;46545;38.014;-7.874;2024-02-21T03:57:15;99830.84;;;14.08;88.46
60705;BME280;46545;38.014;-7.874;2024-02-21T03:59:16;99829.00;;;14.13;88.01
60705;BME280;46545;38.014;-7.874;2024-02-21T04:01:17;99826.31;;;14.13;88.56
60705;BME280;46545;38.014;-7.874;2024-02-21T04:03:17;99835.16;;;14.09;89.13
60705;BME280;46545;38.014;-7.874;2024-02-21T04:05:18;99834.66;;;14.12;89.64
60705;BME280;46545;38.014;-7.874;2024-02-21T04:07:19;99843.47;;;14.07;90.24
60705;BME280;46545;38.014;-7.874;2024-02-21T04:09:20;99837.50;;;14.05;90.98
60705;BME280;46545;38.014;-7.874;2024-02-21T04:11:21;99834.41;;;13.97;91.80
60705;BME280;46545;38.014;-7.874;2024-02-21T04:13:21;99825.00;;;13.82;93.65
60705;BME280;46545;38.014;-7.874;2024-02-21T04:15:23;99818.88;;;13.70;95.63
60705;BME280;46545;38.014;-7.874;2024-02-21T04:17:23;99818.41;;;13.73;95.87
60705;BME280;46545;38.014;-7.874;2024-02-21T04:19:24;99808.50;;;13.62;96.71
60705;BME280;46545;38.014;-7.874;2024-02-21T04:21:25;99807.84;;;13.55;98.07
60705;BME280;46545;38.014;-7.874;2024-02-21T04:23:25;99809.41;;;13.67;96.89
60705;BME280;46545;38.014;-7.874;2024-02-21T04:25:26;99806.06;;;13.60;97.49
60705;BME280;46545;38.014;-7.874;2024-02-21T04:27:27;99808.19;;;13.58;97.64
60705;BME280;46545;38.014;-7.874;2024-02-21T04:29:27;99804.81;;;13.68;97.54
60705;BME280;46545;38.014;-7.874;2024-02-21T04:31:29;99800.34;;;13.57;97.89
60705;BME280;46545;38.014;-7.874;2024-02-21T04:33:29;99796.00;;;13.56;97.97
60705;BME280;46545;38.014;-7.874;2024-02-21T04:35:30;99788.25;;;13.59;97.68
60705;BME280;46545;38.014;-7.874;2024-02-21T04:37:31;99774.38;;;13.50;98.62
60705;BME280;46545;38.014;-7.874;2024-02-21T04:39:31;99774.16;;;13.52;98.52
60705;BME280;46545;38.014;-7.874;2024-02-21T04:41:32;99773.00;;;13.48;98.67
60705;BME280;46545;38.014;-7.874;2024-02-21T04:43:32;99770.88;;;13.50;98.16
60705;BME280;46545;38.014;-7.874;2024-02-21T04:45:33;99773.31;;;13.51;97.33
60705;BME280;46545;38.014;-7.874;2024-02-21T04:47:34;99765.78;;;13.53;97.25
60705;BME280;46545;38.014;-7.874;2024-02-21T04:49:35;99772.19;;;13.64;96.86
60705;BME280;46545;38.014;-7.874;2024-02-21T04:51:35;99765.66;;;13.60;97.21
60705;BME280;46545;38.014;-7.874;2024-02-21T04:53:36;99776.44;;;13.60;98.02
60705;BME280;46545;38.014;-7.874;2024-02-21T04:55:37;99771.53;;;13.57;98.44
60705;BME280;46545;38.014;-7.874;2024-02-21T04:57:37;99769.63;;;13.58;98.72
60705;BME280;46545;38.014;-7.874;2024-02-21T04:59:38;99775.19;;;13.51;97.93
60705;BME280;46545;38.014;-7.874;2024-02-21T05:01:39;99776.16;;;13.45;96.59
60705;BME280;46545;38.014;-7.874;2024-02-21T05:03:39;99770.53;;;13.46;95.92
60705;BME280;46545;38.014;-7.874;2024-02-21T05:05:40;99765.97;;;13.47;94.69
60705;BME280;46545;38.014;-7.874;2024-02-21T05:07:41;99780.72;;;13.44;94.41
60705;BME280;46545;38.014;-7.874;2024-02-21T05:09:42;99782.75;;;13.37;94.33
60705;BME280;46545;38.014;-7.874;2024-02-21T05:11:43;99785.94;;;13.34;94.19
60705;BME280;46545;38.014;-7.874;2024-02-21T05:13:44;99785.59;;;13.30;94.98
60705;BME280;46545;38.014;-7.874;2024-02-21T05:15:44;99787.34;;;13.25;96.72
60705;BME280;46545;38.014;-7.874;2024-02-21T05:17:45;99790.75;;;13.20;97.41
60705;BME280;46545;38.014;-7.874;2024-02-21T05:19:45;99793.66;;;13.19;97.76
60705;BME280;46545;38.014;-7.874;2024-02-21T05:21:46;99801.50;;;13.20;97.71
60705;BME280;46545;38.014;-7.874;2024-02-21T05:23:47;99798.00;;;13.20;97.95
60705;BME280;46545;38.014;-7.874;2024-02-21T05:25:48;99797.16;;;13.31;96.87
60705;BME280;46545;38.014;-7.874;2024-02-21T05:27:51;99792.97;;;13.23;97.29
60705;BME280;46545;38.014;-7.874;2024-02-21T05:29:53;99800.72;;;13.20;97.80
60705;BME280;46545;38.014;-7.874;2024-02-21T05:31:55;99806.91;;;13.20;97.36
60705;BME280;46545;38.014;-7.874;2024-02-21T05:33:59;99806.81;;;13.15;96.10
60705;BME280;46545;38.014;-7.874;2024-02-21T05:35:59;99806.31;;;13.18;95.04
60705;BME280;46545;38.014;-7.874;2024-02-21T05:38:00;99816.84;;;13.31;94.12
60705;BME280;46545;38.014;-7.874;2024-02-21T05:40:01;99813.94;;;13.21;94.02
60705;BME280;46545;38.014;-7.874;2024-02-21T05:42:01;99819.53;;;13.20;95.41
60705;BME280;46545;38.014;-7.874;2024-02-21T05:44:02;99826.31;;;13.22;95.56
60705;BME280;46545;38.014;-7.874;2024-02-21T05:46:03;99832.16;;;13.31;93.50
60705;BME280;46545;38.014;-7.874;2024-02-21T05:48:04;99830.66;;;13.23;93.68
60705;BME280;46545;38.014;-7.874;2024-02-21T05:50:05;99836.72;;;13.30;93.06
60705;BME280;46545;38.014;-7.874;2024-02-21T05:52:06;99839.44;;;13.19;93.40
60705;BME280;46545;38.014;-7.874;2024-02-21T05:54:07;99843.84;;;13.25;92.03
60705;BME280;46545;38.014;-7.874;2024-02-21T05:56:11;99837.09;;;13.22;91.90
60705;BME280;46545;38.014;-7.874;2024-02-21T05:58:12;99838.28;;;13.15;90.81
60705;BME280;46545;38.014;-7.874;2024-02-21T06:00:14;99833.72;;;13.15;90.63
60705;BME280;46545;38.014;-7.874;2024-02-21T06:02:15;99832.22;;;13.07;89.35
60705;BME280;46545;38.014;-7.874;2024-02-21T06:04:16;99837.38;;;13.09;88.20
60705;BME280;46545;38.014;-7.874;2024-02-21T06:06:16;99838.28;;;13.15;87.47
60705;BME280;46545;38.014;-7.874;2024-02-21T06:08:17;99834.88;;;13.19;86.59
60705;BME280;46545;38.014;-7.874;2024-02-21T06:10:18;99829.91;;;12.99;88.35
60705;BME280;46545;38.014;-7.874;2024-02-21T06:12:18;99830.97;;;12.98;88.32
60705;BME280;46545;38.014;-7.874;2024-02-21T06:14:19;99837.16;;;12.99;87.93
60705;BME280;46545;38.014;-7.874;2024-02-21T06:16:20;99834.13;;;12.95;88.78
60705;BME280;46545;38.014;-7.874;2024-02-21T06:18:21;99835.06;;;13.01;87.56
60705;BME280;46545;38.014;-7.874;2024-02-21T06:20:22;99836.31;;;13.10;86.83
60705;BME280;46545;38.014;-7.874;2024-02-21T06:22:22;99832.22;;;13.07;87.28
60705;BME280;46545;38.014;-7.874;2024-02-21T06:24:23;99832.00;;;13.09;86.87
60705;BME280;46545;38.014;-7.874;2024-02-21T06:26:24;99838.28;;;13.15;86.57
60705;BME280;46545;38.014;-7.874;2024-02-21T06:28:24;99838.66;;;13.06;87.34
60705;BME280;46545;38.014;-7.874;2024-02-21T06:30:25;99825.00;;;12.96;87.54
60705;BME280;46545;38.014;-7.874;2024-02-21T06:32:27;99825.00;;;12.96;87.74
60705;BME280;46545;38.014;-7.874;2024-02-21T06:34:27;99825.47;;;12.93;88.31
60705;BME280;46545;38.014;-7.874;2024-02-21T06:36:28;99816.38;;;12.94;88.74
60705;BME280;46545;38.014;-7.874;2024-02-21T06:38:29;99815.66;;;12.87;89.67
60705;BME280;46545;38.014;-7.874;2024-02-21T06:40:29;99810.88;;;12.77;91.33
60705;BME280;46545;38.014;-7.874;2024-02-21T06:42:38;99804.81;;;12.70;92.27
60705;BME280;46545;38.014;-7.874;2024-02-21T06:44:39;99811.59;;;12.72;92.49
60705;BME280;46545;38.014;-7.874;2024-02-21T06:46:40;99809.97;;;12.71;93.49
60705;BME280;46545;38.014;-7.874;2024-02-21T06:48:41;99816.16;;;12.72;93.90
60705;BME280;46545;38.014;-7.874;2024-02-21T06:50:41;99815.00;;;12.80;94.12
60705;BME280;46545;38.014;-7.874;2024-02-21T06:52:42;99812.38;;;12.85;93.50
60705;BME280;46545;38.014;-7.874;2024-02-21T06:54:43;99815.66;;;12.87;93.22
60705;BME280;46545;38.014;-7.874;2024-02-21T06:56:43;99818.22;;;12.93;92.73
60705;BME280;46545;38.014;-7.874;2024-02-21T06:58:44;99825.81;;;12.97;92.87
60705;BME280;46545;38.014;-7.874;2024-02-21T07:00:45;99827.44;;;12.98;91.94
60705;BME280;46545;38.014;-7.874;2024-02-21T07:02:45;99834.34;;;13.05;92.10
60705;BME280;46545;38.014;-7.874;2024-02-21T07:04:46;99837.56;;;13.19;90.68
60705;BME280;46545;38.014;-7.874;2024-02-21T07:06:47;99838.13;;;13.33;89.35
60705;BME280;46545;38.014;-7.874;2024-02-21T07:08:47;99842.22;;;13.36;88.82
60705;BME280;46545;38.014;-7.874;2024-02-21T07:10:48;99839.97;;;13.44;87.48
60705;BME280;46545;38.014;-7.874;2024-02-21T07:12:49;99837.22;;;13.56;84.98
60705;BME280;46545;38.014;-7.874;2024-02-21T07:14:49;99839.06;;;13.56;84.72
60705;BME280;46545;38.014;-7.874;2024-02-21T07:16:50;99838.84;;;13.57;84.32
60705;BME280;46545;38.014;-7.874;2024-02-21T07:18:51;99844.38;;;13.50;84.38
60705;BME280;46545;38.014;-7.874;2024-02-21T07:20:52;99842.44;;;13.46;84.24
60705;BME280;46545;38.014;-7.874;2024-02-21T07:22:52;99841.00;;;13.43;84.71
60705;BME280;46545;38.014;-7.874;2024-02-21T07:24:53;99842.31;;;13.41;85.08
60705;BME280;46545;38.014;-7.874;2024-02-21T07:26:54;99845.34;;;13.44;85.21
60705;BME280;46545;38.014;-7.874;2024-02-21T07:28:54;99846.66;;;13.42;85.28
60705;BME280;46545;38.014;-7.874;2024-02-21T07:30:55;99858.31;;;13.47;85.49
60705;BME280;46545;38.014;-7.874;2024-02-21T07:32:56;99857.84;;;13.50;85.65
60705;BME280;46545;38.014;-7.874;2024-02-21T07:34:56;99857.84;;;13.50;85.60
60705;BME280;46545;38.014;-7.874;2024-02-21T07:36:57;99858.81;;;13.44;87.21
60705;BME280;46545;38.014;-7.874;2024-02-21T07:38:58;99861.66;;;13.38;88.31
60705;BME280;46545;38.014;-7.874;2024-02-21T07:40:59;99865.03;;;13.33;88.82
60705;BME280;46545;38.014;-7.874;2024-02-21T07:42:59;99862.47;;;13.26;89.37
60705;BME280;46545;38.014;-7.874;2024-02-21T07:45:00;99865.97;;;13.27;89.99
60705;BME280;46545;38.014;-7.874;2024-02-21T07:47:01;99875.41;;;13.53;89.43
60705;BME280;46545;38.014;-7.874;2024-02-21T07:49:02;99869.75;;;14.51;86.14
60705;BME280;46545;38.014;-7.874;2024-02-21T07:51:02;99877.50;;;16.29;76.92
60705;BME280;46545;38.014;-7.874;2024-02-21T07:53:03;99876.06;;;18.62;64.68
60705;BME280;46545;38.014;-7.874;2024-02-21T07:55:04;99878.88;;;21.23;53.29
60705;BME280;46545;38.014;-7.874;2024-02-21T07:57:05;99890.19;;;23.60;46.92
60705;BME280;46545;38.014;-7.874;2024-02-21T07:59:06;99878.50;;;25.38;40.18
60705;BME280;46545;38.014;-7.874;2024-02-21T08:01:07;99897.75;;;27.28;37.23
60705;BME280;46545;38.014;-7.874;2024-02-21T08:03:07;99901.31;;;29.04;34.43
60705;BME280;46545;38.014;-7.874;2024-02-21T08:05:08;99905.13;;;30.30;31.77
60705;BME280;46545;38.014;-7.874;2024-02-21T08:07:09;99905.16;;;31.25;30.32
60705;BME280;46545;38.014;-7.874;2024-02-21T08:09:10;99909.00;;;32.30;28.58
60705;BME280;46545;38.014;-7.874;2024-02-21T08:11:11;99916.03;;;33.13;26.56
60705;BME280;46545;38.014;-7.874;2024-02-21T08:13:11;99917.31;;;33.46;24.73
60705;BME280;46545;38.014;-7.874;2024-02-21T08:15:12;99916.75;;;34.24;23.96
60705;BME280;46545;38.014;-7.874;2024-02-21T08:17:13;99921.09;;;34.62;23.93
60705;BME280;46545;38.014;-7.874;2024-02-21T08:19:13;99919.50;;;35.02;23.39
60705;BME280;46545;38.014;-7.874;2024-02-21T08:21:14;99914.94;;;35.31;22.54
60705;BME280;46545;38.014;-7.874;2024-02-21T08:23:23;99922.25;;;35.54;21.92
60705;BME280;46545;38.014;-7.874;2024-02-21T08:25:23;99914.63;;;35.44;21.84
60705;BME280;46545;38.014;-7.874;2024-02-21T08:27:24;99913.75;;;35.32;21.70
60705;BME280;46545;38.014;-7.874;2024-02-21T08:29:25;99918.34;;;35.66;21.60
60705;BME280;46545;38.014;-7.874;2024-02-21T08:31:26;99917.84;;;36.37;21.37
60705;BME280;46545;38.014;-7.874;2024-02-21T08:33:36;99916.72;;;37.13;19.82
60705;BME280;46545;38.014;-7.874;2024-02-21T08:35:37;99912.59;;;37.72;18.98
60705;BME280;46545;38.014;-7.874;2024-02-21T08:37:37;99911.50;;;38.32;18.51
60705;BME280;46545;38.014;-7.874;2024-02-21T08:39:39;99917.09;;;38.88;18.79
60705;BME280;46545;38.014;-7.874;2024-02-21T08:41:39;99920.09;;;39.57;17.96
60705;BME280;46545;38.014;-7.874;2024-02-21T08:43:40;99923.13;;;40.04;17.20
60705;BME280;46545;38.014;-7.874;2024-02-21T08:45:41;99921.69;;;40.50;17.26
60705;BME280;46545;38.014;-7.874;2024-02-21T08:47:41;99930.34;;;40.87;16.59
60705;BME280;46545;38.014;-7.874;2024-02-21T08:49:42;99928.00;;;41.05;16.82
60705;BME280;46545;38.014;-7.874;2024-02-21T08:51:43;99933.25;;;41.30;16.34
60705;BME280;46545;38.014;-7.874;2024-02-21T08:53:45;99930.13;;;41.45;16.64
60705;BME280;46545;38.014;-7.874;2024-02-21T08:55:46;99933.59;;;41.52;16.48
60705;BME280;46545;38.014;-7.874;2024-02-21T08:57:46;99928.66;;;41.60;16.34
60705;BME280;46545;38.014;-7.874;2024-02-21T08:59:48;99930.16;;;41.65;16.02
60705;BME280;46545;38.014;-7.874;2024-02-21T09:01:49;99932.50;;;41.70;16.34
60705;BME280;46545;38.014;-7.874;2024-02-21T09:03:49;99930.81;;;41.72;16.26
60705;BME280;46545;38.014;-7.874;2024-02-21T09:05:53;99942.63;;;42.24;16.10
60705;BME280;46545;38.014;-7.874;2024-02-21T09:07:54;99942.94;;;42.62;16.17
60705;BME280;46545;38.014;-7.874;2024-02-21T09:09:55;99948.31;;;42.73;15.43
60705;BME280;46545;38.014;-7.874;2024-02-21T09:11:56;99957.25;;;42.88;15.78
60705;BME280;46545;38.014;-7.874;2024-02-21T09:13:57;99951.84;;;42.61;16.01
60705;BME280;46545;38.014;-7.874;2024-02-21T09:15:57;99954.81;;;42.17;16.00
60705;BME280;46545;38.014;-7.874;2024-02-21T09:17:58;99958.16;;;41.72;16.32
60705;BME280;46545;38.014;-7.874;2024-02-21T09:19:58;99959.31;;;41.07;17.00
60705;BME280;46545;38.014;-7.874;2024-02-21T09:22:03;99959.09;;;40.71;17.75
60705;BME280;46545;38.014;-7.874;2024-02-21T09:24:05;99958.03;;;40.61;17.53
60705;BME280;46545;38.014;-7.874;2024-02-21T09:26:06;99954.75;;;40.93;18.20
60705;BME280;46545;38.014;-7.874;2024-02-21T09:28:06;99959.84;;;39.86;19.08
60705;BME280;46545;38.014;-7.874;2024-02-21T09:30:07;99952.63;;;36.97;21.92
60705;BME280;46545;38.014;-7.874;2024-02-21T09:32:08;99956.00;;;33.85;25.11
60705;BME280;46545;38.014;-7.874;2024-02-21T09:34:09;99949.31;;;31.18;28.63
60705;BME280;46545;38.014;-7.874;2024-02-21T09:36:11;99956.25;;;28.85;31.87
60705;BME280;46545;38.014;-7.874;2024-02-21T09:38:12;99963.06;;;27.10;34.56
60705;BME280;46545;38.014;-7.874;2024-02-21T09:40:15;99954.63;;;25.90;36.33
60705;BME280;46545;38.014;-7.874;2024-02-21T09:42:20;99969.03;;;24.98;38.23
60705;BME280;46545;38.014;-7.874;2024-02-21T09:44:21;99968.38;;;24.25;39.69
60705;BME280;46545;38.014;-7.874;2024-02-21T09:46:52;99968.72;;;23.45;40.86
60705;BME280;46545;38.014;-7.874;2024-02-21T09:49:09;99965.91;;;22.90;42.65
60705;BME280;46545;38.014;-7.874;2024-02-21T09:51:14;99965.44;;;22.55;43.58
60705;BME280;46545;38.014;-7.874;2024-02-21T09:53:15;99964.28;;;22.04;44.80
60705;BME280;46545;38.014;-7.874;2024-02-21T09:55:17;99958.22;;;21.69;45.94
60705;BME280;46545;38.014;-7.874;2024-02-21T09:57:20;99950.53;;;21.28;48.51
60705;BME280;46545;38.014;-7.874;2024-02-21T09:59:20;99954.34;;;21.03;49.73
60705;BME280;46545;38.014;-7.874;2024-02-21T10:01:21;99950.91;;;20.92;51.65
60705;BME280;46545;38.014;-7.874;2024-02-21T10:03:22;99946.88;;;20.90;52.65
60705;BME280;46545;38.014;-7.874;2024-02-21T10:05:23;99945.09;;;20.75;53.59
60705;BME280;46545;38.014;-7.874;2024-02-21T10:07:25;99947.16;;;20.59;53.91
60705;BME280;46545;38.014;-7.874;2024-02-21T10:09:29;99954.41;;;20.69;52.63
60705;BME280;46545;38.014;-7.874;2024-02-21T10:11:30;99945.59;;;20.77;52.64
60705;BME280;46545;38.014;-7.874;2024-02-21T10:13:31;99945.16;;;20.70;52.96
60705;BME280;46545;38.014;-7.874;2024-02-21T10:15:48;99946.03;;;20.60;52.45
60705;BME280;46545;38.014;-7.874;2024-02-21T10:18:01;99943.38;;;20.50;52.82
60705;BME280;46545;38.014;-7.874;2024-02-21T10:20:10;99939.25;;;20.52;51.82
60705;BME280;46545;38.014;-7.874;2024-02-21T10:22:11;99934.81;;;20.67;51.21
60705;BME280;46545;38.014;-7.874;2024-02-21T10:24:12;99940.22;;;20.72;50.61
60705;BME280;46545;38.014;-7.874;2024-02-21T10:31:28;99951.88;;;21.07;46.55
60705;BME280;46545;38.014;-7.874;2024-02-21T10:33:30;99944.94;;;20.90;47.08
60705;BME280;46545;38.014;-7.874;2024-02-21T10:35:33;99958.75;;;20.99;48.40
60705;BME280;46545;38.014;-7.874;2024-02-21T10:37:33;99956.53;;;21.01;48.32
60705;BME280;46545;38.014;-7.874;2024-02-21T10:39:36;99956.72;;;21.10;48.06